Terminal Aerodrome Forecast
Issued by NWS

Home | Current Version | Previous Version | Text Only | Print | Product List | Glossary Off
Versions: 1 2 3 4 5 6 7 8 9 10 11 12 13 14 15 16 17 18 19 20

000
FTUS43 KBIS 281136
TAFDIK
TAF
KDIK 281136Z 2812/2912 05004KT 4SM BR FEW007 SCT100
      TEMPO 2812/2814 1SM BR OVC005
     FM281400 09006KT P6SM SCT025
     FM281600 11005KT P6SM SCT050
     FM282000 18005KT P6SM VCTS BKN060CB
      TEMPO 2820/2822 4SM -TSRA BKN040CB
     FM290100 30008KT P6SM BKN060
     FM290800 27006KT P6SM FEW250=

USA.gov is the U.S. government's official web portal to all federal, state and local government web resources and services.